Atlantic, Maine
Current Conditions -  °F | °C
As of 3:55 PM on Friday 19 Dec 2014 (Local Time) from KBHB Reporting Station
Overcast Overcast  
Wind Chill: 24°   Ceiling: 2100
Heat Index: 30°   Visibility: 10mi
Dew Point: 27°   Wind: 6mph
Humidity: 86%   Direction: 320°NW
Pressure: 29.93"   Gusts: NA
Location:  44.1716°N, 68.4245°W
Report Text: KBHB 192055Z AUTO 32005KT 10SM OVC021 M01/M03 A2993 RMK AO1 52017
Loading
Personal Weather Stations






























Interactive Weather Map New forecast layout! Learn more

10-Day Weather Forecast

Advertisements
Track Severe Weather on mobile